createdAt,value
2018-05-12T00:00:54.530Z,60.58
2018-05-12T00:02:01.258Z,60.64
2018-05-12T00:03:08.218Z,60.72
2018-05-12T00:04:14.919Z,60.77
2018-05-12T00:05:21.662Z,60.74
2018-05-12T00:06:28.472Z,60.70
2018-05-12T00:07:35.168Z,60.71
2018-05-12T00:08:41.938Z,60.77
2018-05-12T00:09:48.646Z,60.74
2018-05-12T00:10:55.430Z,60.78
2018-05-12T00:12:02.147Z,60.80
2018-05-12T00:13:08.891Z,60.78
2018-05-12T00:14:15.682Z,60.78
2018-05-12T00:15:22.390Z,60.76
2018-05-12T00:16:29.137Z,60.76
2018-05-12T00:17:35.854Z,60.77
2018-05-12T00:18:42.550Z,60.77
2018-05-12T00:19:49.266Z,60.81
2018-05-12T00:20:56.087Z,60.81
2018-05-12T00:22:02.803Z,60.74
2018-05-12T00:23:09.535Z,60.71
2018-05-12T00:24:16.249Z,60.66
2018-05-12T00:25:22.995Z,60.63
2018-05-12T00:26:29.814Z,60.66
2018-05-12T00:27:36.519Z,60.64
2018-05-12T00:28:43.236Z,60.65
2018-05-12T00:29:49.935Z,60.61
2018-05-12T00:30:56.690Z,60.71
2018-05-12T00:32:03.384Z,60.69
2018-05-12T00:33:10.195Z,60.65
2018-05-12T00:34:16.890Z,60.65
2018-05-12T00:35:23.591Z,60.65
2018-05-12T00:36:30.323Z,60.63
2018-05-12T00:37:37.030Z,60.67
2018-05-12T00:38:43.735Z,60.67
2018-05-12T00:39:50.432Z,60.71
2018-05-12T00:40:57.255Z,60.65
2018-05-12T00:42:03.964Z,60.60
2018-05-12T00:43:10.718Z,60.65
2018-05-12T00:44:17.439Z,60.65
2018-05-12T00:45:24.141Z,60.70
2018-05-12T00:46:30.999Z,60.68
2018-05-12T00:47:37.735Z,60.64
2018-05-12T00:48:44.447Z,60.62
2018-05-12T00:49:51.170Z,60.56
2018-05-12T00:50:57.907Z,60.53
2018-05-12T00:52:04.730Z,60.60
2018-05-12T00:53:11.431Z,60.66
2018-05-12T00:54:18.155Z,60.67
2018-05-12T00:55:24.870Z,60.63
2018-05-12T00:56:32.003Z,60.58
2018-05-12T00:57:38.703Z,60.55
2018-05-12T00:58:45.425Z,60.61
2018-05-12T00:59:52.134Z,60.68
2018-05-12T01:00:58.938Z,60.60
2018-05-12T01:02:05.686Z,60.55
2018-05-12T01:03:12.480Z,60.58
2018-05-12T01:04:19.183Z,60.59
2018-05-12T01:05:26.019Z,60.58
2018-05-12T01:06:32.758Z,60.59
2018-05-12T01:07:39.715Z,60.49
2018-05-12T01:08:46.486Z,60.56
2018-05-12T01:09:53.194Z,60.53
2018-05-12T01:10:59.957Z,60.59
2018-05-12T01:12:06.671Z,60.59
2018-05-12T01:13:13.398Z,60.65
2018-05-12T01:14:20.507Z,60.57
2018-05-12T01:15:27.332Z,60.50
2018-05-12T01:16:34.055Z,60.57
2018-05-12T01:17:40.784Z,60.60
2018-05-12T01:18:47.630Z,60.60
2018-05-12T01:19:54.436Z,60.54
2018-05-12T01:21:01.207Z,60.57
2018-05-12T01:22:07.955Z,60.56
2018-05-12T01:23:14.690Z,60.63
2018-05-12T01:24:21.527Z,60.63
2018-05-12T01:25:28.279Z,60.70
2018-05-12T01:26:35.050Z,60.58
2018-05-12T01:27:41.759Z,60.64
2018-05-12T01:28:48.511Z,60.63
2018-05-12T01:29:55.304Z,60.68
2018-05-12T01:31:02.133Z,60.64
2018-05-12T01:32:08.903Z,60.63
2018-05-12T01:33:15.750Z,60.57
2018-05-12T01:34:22.558Z,60.60
2018-05-12T01:35:29.299Z,60.70
2018-05-12T01:36:36.328Z,60.62
2018-05-12T01:37:43.083Z,60.62
2018-05-12T01:38:49.835Z,60.61
2018-05-12T01:39:56.567Z,60.57
2018-05-12T01:41:03.350Z,60.61
2018-05-12T01:42:10.102Z,60.67
2018-05-12T01:43:16.826Z,60.68
2018-05-12T01:44:23.880Z,60.70
2018-05-12T01:45:30.615Z,60.76
2018-05-12T01:46:37.351Z,60.81
2018-05-12T01:47:44.110Z,60.80
2018-05-12T01:48:50.818Z,60.76
2018-05-12T01:49:57.621Z,60.73
2018-05-12T01:51:04.347Z,60.84
2018-05-12T01:52:11.096Z,60.80
2018-05-12T01:53:17.847Z,60.78
2018-05-12T01:54:24.579Z,60.89
2018-05-12T01:55:31.391Z,60.87
2018-05-12T01:56:38.149Z,60.90
2018-05-12T01:57:44.908Z,60.88
2018-05-12T01:58:51.659Z,60.87
2018-05-12T01:59:58.486Z,60.76
2018-05-12T02:01:05.283Z,60.80
2018-05-12T02:02:12.063Z,60.76
2018-05-12T02:03:18.807Z,60.79
2018-05-12T02:04:25.574Z,60.76
2018-05-12T02:05:32.346Z,60.76
2018-05-12T02:06:39.078Z,60.74
2018-05-12T02:07:45.851Z,60.77
2018-05-12T02:08:52.672Z,60.85
2018-05-12T02:09:59.395Z,60.85
2018-05-12T02:11:06.147Z,60.92
2018-05-12T02:12:12.862Z,60.85
2018-05-12T02:13:19.673Z,60.80
2018-05-12T02:14:26.447Z,60.80
2018-05-12T02:15:33.179Z,60.81
2018-05-12T02:16:40.019Z,60.86
2018-05-12T02:17:46.754Z,60.94
2018-05-12T02:18:53.547Z,60.88
2018-05-12T02:20:00.274Z,60.83
2018-05-12T02:21:07.058Z,60.94
2018-05-12T02:22:13.782Z,61.02
2018-05-12T02:23:20.539Z,60.97
2018-05-12T02:24:27.294Z,61.03
2018-05-12T02:25:34.147Z,61.12
2018-05-12T02:26:40.930Z,61.01
2018-05-12T02:27:47.764Z,61.01
2018-05-12T02:28:54.518Z,61.06
2018-05-12T02:30:01.239Z,61.16
2018-05-12T02:31:08.051Z,61.22
2018-05-12T02:32:14.830Z,61.12
2018-05-12T02:33:21.555Z,61.20
2018-05-12T02:34:28.335Z,61.17
2018-05-12T02:35:35.067Z,61.15
2018-05-12T02:36:41.782Z,61.13
2018-05-12T02:37:48.606Z,61.20
2018-05-12T02:38:55.379Z,61.16
2018-05-12T02:40:02.130Z,61.17
2018-05-12T02:41:09.139Z,61.14
2018-05-12T02:42:15.860Z,61.18
2018-05-12T02:43:22.627Z,61.23
2018-05-12T02:44:29.338Z,61.14
2018-05-12T02:45:36.140Z,61.14
2018-05-12T02:46:42.858Z,61.24
2018-05-12T02:47:49.695Z,61.22
2018-05-12T02:48:56.410Z,61.24
2018-05-12T02:50:03.219Z,61.20
2018-05-12T02:51:09.972Z,61.24
2018-05-12T02:52:16.711Z,61.25
2018-05-12T02:53:23.455Z,61.24
2018-05-12T02:54:30.292Z,61.27
2018-05-12T02:55:36.995Z,61.29
2018-05-12T02:56:43.851Z,61.35
2018-05-12T02:57:50.745Z,61.36
2018-05-12T02:58:57.488Z,61.45
2018-05-12T03:00:04.371Z,61.31
2018-05-12T03:01:11.159Z,61.31
2018-05-12T03:02:17.882Z,61.34
2018-05-12T03:03:24.631Z,61.38
2018-05-12T03:04:31.375Z,61.41
2018-05-12T03:05:38.252Z,61.41
2018-05-12T03:06:45.063Z,61.47
2018-05-12T03:07:51.838Z,61.46
2018-05-12T03:08:58.655Z,61.55
2018-05-12T03:10:05.409Z,61.49
2018-05-12T03:11:12.176Z,61.50
2018-05-12T03:12:18.899Z,61.48
2018-05-12T03:13:25.735Z,61.49
2018-05-12T03:14:32.487Z,61.47
2018-05-12T03:15:39.230Z,61.56
2018-05-12T03:16:45.955Z,61.54
2018-05-12T03:17:52.795Z,61.51
2018-05-12T03:18:59.614Z,61.51
2018-05-12T03:20:06.369Z,61.55
2018-05-12T03:21:13.163Z,61.56
2018-05-12T03:22:19.891Z,61.51
2018-05-12T03:23:26.643Z,61.52
2018-05-12T03:24:33.366Z,61.51
2018-05-12T03:25:40.187Z,61.54
2018-05-12T03:26:46.890Z,61.62
2018-05-12T03:27:53.615Z,61.56
2018-05-12T03:29:00.378Z,61.53
2018-05-12T03:30:07.234Z,61.55
2018-05-12T03:31:13.955Z,61.62
2018-05-12T03:32:20.703Z,61.64
2018-05-12T03:33:27.454Z,61.63
2018-05-12T03:34:34.158Z,61.67
2018-05-12T03:35:40.959Z,61.67
2018-05-12T03:36:47.674Z,61.66
2018-05-12T03:37:54.422Z,61.69
2018-05-12T03:39:01.182Z,61.70
2018-05-12T03:40:08.236Z,61.76
2018-05-12T03:41:14.979Z,61.74
2018-05-12T03:42:21.682Z,61.75
2018-05-12T03:43:28.500Z,61.76
2018-05-12T03:44:35.239Z,61.84
2018-05-12T03:45:41.951Z,61.92
2018-05-12T03:46:48.699Z,61.92
2018-05-12T03:47:55.415Z,61.89
2018-05-12T03:49:02.263Z,61.91
2018-05-12T03:50:08.998Z,61.91
2018-05-12T03:51:15.717Z,61.97
2018-05-12T03:52:22.466Z,62.03
2018-05-12T03:53:29.327Z,62.09
2018-05-12T03:54:36.065Z,62.17
2018-05-12T03:55:42.821Z,62.02
2018-05-12T03:56:49.555Z,62.15
2018-05-12T03:57:56.387Z,62.14
2018-05-12T03:59:03.138Z,62.19
2018-05-12T04:00:09.907Z,62.20
2018-05-12T04:01:16.902Z,62.23
2018-05-12T04:02:23.642Z,62.24
2018-05-12T04:03:30.379Z,62.24
2018-05-12T04:04:37.114Z,62.30
2018-05-12T04:05:44.614Z,62.38
2018-05-12T04:06:54.934Z,62.34
2018-05-12T04:08:07.571Z,62.36
2018-05-12T04:09:16.330Z,62.49
2018-05-12T04:10:23.074Z,62.55
2018-05-12T04:11:29.944Z,62.58
2018-05-12T04:12:36.924Z,62.62
2018-05-12T04:13:43.827Z,62.61
2018-05-12T04:14:50.639Z,62.61
2018-05-12T04:15:57.370Z,62.62
2018-05-12T04:17:04.098Z,62.67
2018-05-12T04:18:10.859Z,62.73
2018-05-12T04:19:17.726Z,62.81
2018-05-12T04:20:24.451Z,62.86
2018-05-12T04:21:31.197Z,62.93
2018-05-12T04:22:37.931Z,63.03
2018-05-12T04:23:44.791Z,63.18
2018-05-12T04:24:51.563Z,63.16
2018-05-12T04:25:58.289Z,63.13
2018-05-12T04:27:05.022Z,63.22
2018-05-12T04:28:11.735Z,63.26
2018-05-12T04:29:18.607Z,63.32
2018-05-12T04:30:25.357Z,63.44
2018-05-12T04:31:32.082Z,63.49
2018-05-12T04:32:38.793Z,63.54
2018-05-12T04:33:45.575Z,63.58
2018-05-12T04:34:52.326Z,63.66
2018-05-12T04:35:59.095Z,63.79
2018-05-12T04:37:05.823Z,63.82
2018-05-12T04:38:12.642Z,63.84
2018-05-12T04:39:19.390Z,63.87
2018-05-12T04:40:26.138Z,63.95
2018-05-12T04:41:32.858Z,64.05
2018-05-12T04:42:39.699Z,64.09
2018-05-12T04:43:46.392Z,64.15
2018-05-12T04:44:53.127Z,64.24
2018-05-12T04:45:59.835Z,64.20
2018-05-12T04:47:06.562Z,64.21
2018-05-12T04:48:13.277Z,64.25
2018-05-12T04:49:20.083Z,64.36
2018-05-12T04:50:26.771Z,64.43
2018-05-12T04:51:33.620Z,64.55
2018-05-12T04:52:40.354Z,64.61
2018-05-12T04:53:47.127Z,64.69
2018-05-12T04:54:53.848Z,64.80
2018-05-12T04:56:00.587Z,64.85
2018-05-12T04:57:07.363Z,64.96
2018-05-12T04:58:14.211Z,65.09
2018-05-12T04:59:20.982Z,65.19
2018-05-12T05:00:27.687Z,65.32
2018-05-12T05:01:34.480Z,65.39
2018-05-12T05:02:41.254Z,65.45
2018-05-12T05:03:47.930Z,65.55
2018-05-12T05:04:54.667Z,65.64
2018-05-12T05:06:01.379Z,65.70
2018-05-12T05:07:08.122Z,65.81
2018-05-12T05:08:15.195Z,65.85
2018-05-12T05:09:21.894Z,65.96
2018-05-12T05:10:28.622Z,66.05
2018-05-12T05:11:35.375Z,66.11
2018-05-12T05:12:42.075Z,66.20
2018-05-12T05:13:48.803Z,66.40
2018-05-12T05:14:55.553Z,66.57
2018-05-12T05:16:02.296Z,66.61
2018-05-12T05:17:09.052Z,66.72
2018-05-12T05:18:15.790Z,66.82
2018-05-12T05:19:22.537Z,66.90
2018-05-12T05:20:29.231Z,67.00
2018-05-12T05:21:35.905Z,67.07
2018-05-12T05:22:42.608Z,67.21
2018-05-12T05:23:49.371Z,67.35
2018-05-12T05:24:56.092Z,67.46
2018-05-12T05:26:02.769Z,67.60
2018-05-12T05:27:09.483Z,67.69
2018-05-12T05:28:16.177Z,67.79
2018-05-12T05:29:22.971Z,67.89
2018-05-12T05:30:29.729Z,68.05
2018-05-12T05:31:36.487Z,68.24
2018-05-12T05:32:43.183Z,68.34
2018-05-12T05:33:49.963Z,68.50
2018-05-12T05:34:56.698Z,68.58
2018-05-12T05:36:03.567Z,68.66
2018-05-12T05:37:10.277Z,68.72
2018-05-12T05:38:17.011Z,68.81
2018-05-12T05:39:23.737Z,68.96
2018-05-12T05:40:30.505Z,69.14
2018-05-12T05:41:37.317Z,69.29
2018-05-12T05:42:44.292Z,69.44
2018-05-12T05:43:50.979Z,69.58
2018-05-12T05:44:57.686Z,69.67
2018-05-12T05:46:04.390Z,69.81
2018-05-12T05:47:11.112Z,69.92
2018-05-12T05:48:17.792Z,70.00
2018-05-12T05:49:24.528Z,70.08
2018-05-12T05:50:31.278Z,70.20
2018-05-12T05:51:37.962Z,70.35
2018-05-12T05:52:44.675Z,70.45
2018-05-12T05:53:51.351Z,70.66
2018-05-12T05:54:58.093Z,70.86
2018-05-12T05:56:04.775Z,70.97
2018-05-12T05:57:11.735Z,71.01
2018-05-12T05:58:18.559Z,71.20
2018-05-12T05:59:25.324Z,71.44
2018-05-12T06:00:32.154Z,71.55
2018-05-12T06:01:38.876Z,71.62
2018-05-12T06:02:45.592Z,71.71
2018-05-12T06:03:52.286Z,71.79
2018-05-12T06:04:58.996Z,71.89
2018-05-12T06:06:05.864Z,72.01
2018-05-12T06:07:12.598Z,72.08
2018-05-12T06:08:19.325Z,72.23
2018-05-12T06:09:26.060Z,72.32
2018-05-12T06:10:32.843Z,72.45
2018-05-12T06:11:40.003Z,72.59
2018-05-12T06:12:46.712Z,72.74
2018-05-12T06:13:53.515Z,72.83
2018-05-12T06:15:00.243Z,72.95
2018-05-12T06:16:07.060Z,73.02
2018-05-12T06:17:13.747Z,73.08
2018-05-12T06:18:20.496Z,73.21
2018-05-12T06:19:27.259Z,73.35
2018-05-12T06:20:33.937Z,73.43
2018-05-12T06:21:42.008Z,73.54
2018-05-12T06:22:47.955Z,73.62
2018-05-12T06:23:54.634Z,73.66
2018-05-12T06:25:01.371Z,73.81
2018-05-12T06:26:08.098Z,73.96
2018-05-12T06:27:17.832Z,74.07
2018-05-12T06:28:26.508Z,74.25
2018-05-12T06:29:33.558Z,74.47
2018-05-12T06:30:40.270Z,74.54
2018-05-12T06:31:47.098Z,74.68
2018-05-12T06:32:54.148Z,74.84
2018-05-12T06:34:00.847Z,74.88
2018-05-12T06:35:07.577Z,75.02
2018-05-12T06:36:14.311Z,75.17
2018-05-12T06:37:21.094Z,75.40
2018-05-12T06:38:27.875Z,75.52
2018-05-12T06:39:34.623Z,75.69
2018-05-12T06:40:41.339Z,75.80
2018-05-12T06:41:48.070Z,75.92
2018-05-12T06:42:54.767Z,76.17
2018-05-12T06:44:01.483Z,76.37
2018-05-12T06:45:08.255Z,76.48
2018-05-12T06:46:14.938Z,76.67
2018-05-12T06:47:21.660Z,76.80
2018-05-12T06:48:28.400Z,77.06
2018-05-12T06:49:35.154Z,77.19
2018-05-12T06:50:41.940Z,77.47
2018-05-12T06:51:48.759Z,77.55
2018-05-12T06:52:55.464Z,77.73
2018-05-12T06:54:02.185Z,77.88
2018-05-12T06:55:09.012Z,78.02
2018-05-12T06:56:15.818Z,78.20
2018-05-12T06:57:22.537Z,78.31
2018-05-12T06:58:29.233Z,78.52
2018-05-12T06:59:35.931Z,78.64
2018-05-12T07:00:42.702Z,78.71
2018-05-12T07:01:49.456Z,78.82
2018-05-12T07:02:56.154Z,78.89
2018-05-12T07:04:02.867Z,78.97
2018-05-12T07:05:09.632Z,79.12
2018-05-12T07:06:16.422Z,79.20
2018-05-12T07:07:23.114Z,79.25
2018-05-12T07:08:29.926Z,79.30
2018-05-12T07:09:36.639Z,79.42
2018-05-12T07:10:43.342Z,79.62
2018-05-12T07:11:50.147Z,79.76
2018-05-12T07:12:56.835Z,79.99
2018-05-12T07:14:03.539Z,80.09
2018-05-12T07:15:10.281Z,80.31
2018-05-12T07:16:17.036Z,80.32
2018-05-12T07:17:23.726Z,80.36
2018-05-12T07:18:30.543Z,80.46
2018-05-12T07:19:37.244Z,80.60
2018-05-12T07:20:44.113Z,80.66
2018-05-12T07:21:51.027Z,80.75
2018-05-12T07:22:57.761Z,80.82
2018-05-12T07:24:04.512Z,80.89
2018-05-12T07:25:11.264Z,80.96
2018-05-12T07:26:18.047Z,81.05
2018-05-12T07:27:24.723Z,81.14
2018-05-12T07:28:31.458Z,81.22
2018-05-12T07:29:38.343Z,81.30
2018-05-12T07:30:45.258Z,81.43
2018-05-12T07:31:51.971Z,81.45
2018-05-12T07:32:58.671Z,81.60
2018-05-12T07:34:05.608Z,81.65
2018-05-12T07:35:12.334Z,81.74
2018-05-12T07:36:19.055Z,81.95
2018-05-12T07:37:25.772Z,82.10
2018-05-12T07:38:32.507Z,82.14
2018-05-12T07:39:39.280Z,82.14
2018-05-12T07:40:45.983Z,82.22
2018-05-12T07:41:52.815Z,82.35
2018-05-12T07:42:59.512Z,82.41
2018-05-12T07:44:06.323Z,82.49
2018-05-12T07:45:13.063Z,82.46
2018-05-12T07:46:19.806Z,82.50
2018-05-12T07:47:26.755Z,82.47
2018-05-12T07:48:33.501Z,82.48
2018-05-12T07:49:40.193Z,82.54
2018-05-12T07:50:46.931Z,82.62
2018-05-12T07:51:53.630Z,82.62
2018-05-12T07:53:00.331Z,82.75
2018-05-12T07:54:07.129Z,82.82
2018-05-12T07:55:13.868Z,82.82
2018-05-12T07:56:20.671Z,82.71
2018-05-12T07:57:27.363Z,82.66
2018-05-12T07:58:34.063Z,82.68
2018-05-12T07:59:40.832Z,82.82
2018-05-12T08:00:47.583Z,82.93
2018-05-12T08:01:54.315Z,82.98
2018-05-12T08:03:01.033Z,83.03
2018-05-12T08:04:07.755Z,83.02
2018-05-12T08:05:14.573Z,83.03
2018-05-12T08:06:21.283Z,82.97
2018-05-12T08:07:28.138Z,83.09
2018-05-12T08:08:34.844Z,83.08
2018-05-12T08:09:41.641Z,83.24
2018-05-12T08:10:48.391Z,83.38
2018-05-12T08:11:55.305Z,83.28
2018-05-12T08:13:02.079Z,83.22
2018-05-12T08:14:08.847Z,83.35
2018-05-12T08:15:15.590Z,83.26
2018-05-12T08:16:22.284Z,83.30
2018-05-12T08:17:29.130Z,83.27
2018-05-12T08:18:35.836Z,83.23
2018-05-12T08:19:42.535Z,83.24
2018-05-12T08:20:49.234Z,83.25
2018-05-12T08:21:56.007Z,83.11
2018-05-12T08:24:09.746Z,82.99
2018-05-12T08:25:16.495Z,82.94
2018-05-12T08:26:23.326Z,83.02
2018-05-12T08:27:30.068Z,82.94
2018-05-12T08:28:36.843Z,82.84
2018-05-12T08:29:43.692Z,82.96
2018-05-12T08:30:50.493Z,82.93
2018-05-12T08:31:57.240Z,82.73
2018-05-12T08:33:03.965Z,82.67
2018-05-12T08:34:10.758Z,82.58
2018-05-12T08:35:17.511Z,82.53
2018-05-12T08:36:24.262Z,82.42
2018-05-12T08:37:31.022Z,82.26
2018-05-12T08:38:37.852Z,82.37
2018-05-12T08:39:44.640Z,82.48
2018-05-12T08:40:51.420Z,82.49
2018-05-12T08:41:58.143Z,82.34
2018-05-12T08:43:04.922Z,82.26
2018-05-12T08:44:11.679Z,82.08
2018-05-12T08:45:18.412Z,82.09
2018-05-12T08:46:25.162Z,82.05
2018-05-12T08:47:32.016Z,81.91
2018-05-12T08:48:38.778Z,81.93
2018-05-12T08:49:45.512Z,81.73
2018-05-12T08:50:52.301Z,81.61
2018-05-12T08:51:59.071Z,81.67
2018-05-12T08:54:13.050Z,81.24
2018-05-12T08:55:19.788Z,81.09
2018-05-12T08:56:26.459Z,81.17
2018-05-12T08:57:33.127Z,81.23
2018-05-12T08:58:40.566Z,81.33
2018-05-12T08:59:47.252Z,81.34
2018-05-12T09:00:54.102Z,81.43
2018-05-12T09:02:00.879Z,81.26
2018-05-12T09:03:07.563Z,81.11
2018-05-12T09:04:14.362Z,80.71
2018-05-12T09:05:21.063Z,80.26
2018-05-12T09:06:27.994Z,79.78
2018-05-12T09:07:34.810Z,79.73
2018-05-12T09:08:41.508Z,79.57
2018-05-12T09:09:48.215Z,79.46
2018-05-12T09:10:54.931Z,79.39
2018-05-12T09:12:01.733Z,79.49
2018-05-12T09:13:08.430Z,79.43
2018-05-12T09:14:15.145Z,79.18
2018-05-12T09:15:21.852Z,78.94
2018-05-12T09:16:28.563Z,78.54
2018-05-12T09:17:35.309Z,78.31
2018-05-12T09:18:42.092Z,78.20
2018-05-12T09:19:48.768Z,77.93
2018-05-12T09:20:55.751Z,77.79
2018-05-12T09:22:02.549Z,77.60
2018-05-12T09:23:09.283Z,77.48
2018-05-12T09:24:16.034Z,76.77
2018-05-12T09:25:22.748Z,76.69
2018-05-12T09:26:29.470Z,76.44
2018-05-12T09:27:36.292Z,75.94
2018-05-12T09:28:43.047Z,75.39
2018-05-12T09:29:49.782Z,74.70
2018-05-12T09:30:56.527Z,74.22
2018-05-12T09:32:03.334Z,73.80
2018-05-12T09:33:10.083Z,73.44
2018-05-12T09:34:16.805Z,72.91
2018-05-12T09:35:23.542Z,72.81
2018-05-12T09:36:30.280Z,72.47
2018-05-12T09:37:37.060Z,71.95
2018-05-12T09:38:43.822Z,71.60
2018-05-12T09:39:50.648Z,71.09
2018-05-12T09:40:57.414Z,70.71
2018-05-12T09:42:04.163Z,70.57
2018-05-12T09:43:10.883Z,70.22
2018-05-12T09:44:17.634Z,69.58
2018-05-12T09:45:24.387Z,69.68
2018-05-12T09:46:31.095Z,69.38
2018-05-12T09:47:37.783Z,68.78
2018-05-12T09:48:44.590Z,68.68
2018-05-12T09:49:51.338Z,68.71
2018-05-12T09:50:58.083Z,68.43
2018-05-12T09:52:04.820Z,68.43
2018-05-12T09:53:11.526Z,68.33
2018-05-12T09:54:18.358Z,68.10
2018-05-12T09:55:25.082Z,68.19
2018-05-12T09:56:31.812Z,67.89
2018-05-12T09:57:38.562Z,67.32
2018-05-12T09:59:54.559Z,66.83
2018-05-12T10:01:01.407Z,66.84
2018-05-12T10:02:08.167Z,66.71
2018-05-12T10:03:14.892Z,66.90
2018-05-12T10:04:21.705Z,66.23
2018-05-12T10:05:28.419Z,65.83
2018-05-12T10:06:35.152Z,65.75
2018-05-12T10:07:42.311Z,65.63
2018-05-12T10:08:49.072Z,65.47
2018-05-12T10:09:55.779Z,65.29
2018-05-12T10:11:02.524Z,65.19
2018-05-12T10:12:09.274Z,65.15
2018-05-12T10:13:16.288Z,64.85
2018-05-12T10:14:23.079Z,64.29
2018-05-12T10:15:29.909Z,64.10
2018-05-12T10:16:36.902Z,64.28
2018-05-12T10:17:43.671Z,64.30
2018-05-12T10:18:50.479Z,64.04
2018-05-12T10:19:57.331Z,64.20
2018-05-12T10:21:04.127Z,63.83
2018-05-12T10:22:10.887Z,63.78
2018-05-12T10:23:17.627Z,63.40
2018-05-12T10:24:24.434Z,63.43
2018-05-12T10:25:31.162Z,62.91
2018-05-12T10:26:37.948Z,62.62
2018-05-12T10:27:44.666Z,62.65
2018-05-12T10:28:51.656Z,62.13
2018-05-12T10:29:58.403Z,62.05
2018-05-12T10:31:05.163Z,61.89
2018-05-12T10:32:11.963Z,61.74
2018-05-12T10:33:18.726Z,61.39
2018-05-12T10:34:25.513Z,61.17
2018-05-12T10:35:32.380Z,61.01
2018-05-12T10:36:39.131Z,61.10
2018-05-12T10:37:45.968Z,60.80
2018-05-12T10:38:52.883Z,60.61
2018-05-12T10:39:59.635Z,60.43
2018-05-12T10:41:06.428Z,60.28
2018-05-12T10:42:13.240Z,59.85
2018-05-12T10:43:19.975Z,60.06
2018-05-12T10:44:26.759Z,59.84
2018-05-12T10:45:33.513Z,59.64
2018-05-12T10:46:40.339Z,59.58
2018-05-12T10:47:47.083Z,59.69
2018-05-12T10:48:53.832Z,59.03
2018-05-12T10:50:00.603Z,58.77
2018-05-12T10:51:07.443Z,58.80
2018-05-12T10:52:14.248Z,58.73
2018-05-12T10:53:21.020Z,58.56
2018-05-12T10:54:27.826Z,58.41
2018-05-12T10:55:34.549Z,58.49
2018-05-12T10:56:41.346Z,58.10
2018-05-12T10:57:48.083Z,58.01
2018-05-12T10:58:54.927Z,58.24
2018-05-12T11:00:01.745Z,57.84
2018-05-12T11:01:08.726Z,57.84
2018-05-12T11:02:15.495Z,57.68
2018-05-12T11:03:22.247Z,57.28
2018-05-12T11:04:28.953Z,57.20
2018-05-12T11:05:35.751Z,57.45
2018-05-12T11:06:42.510Z,56.91
2018-05-12T11:07:49.223Z,57.00
2018-05-12T11:08:55.963Z,57.00
2018-05-12T11:10:02.703Z,56.74
2018-05-12T11:11:09.509Z,56.54
2018-05-12T11:12:16.254Z,56.72
2018-05-12T11:13:22.988Z,56.53
2018-05-12T11:14:29.737Z,56.34
2018-05-12T11:15:36.477Z,56.19
2018-05-12T11:16:43.248Z,55.92
2018-05-12T11:17:50.167Z,55.60
2018-05-12T11:18:57.042Z,55.64
2018-05-12T11:20:03.811Z,55.64
2018-05-12T11:21:10.594Z,55.52
2018-05-12T11:22:17.390Z,54.91
2018-05-12T11:23:24.143Z,55.01
2018-05-12T11:24:30.891Z,54.80
2018-05-12T11:25:37.663Z,54.84
2018-05-12T11:26:44.481Z,54.76
2018-05-12T11:27:51.237Z,54.91
2018-05-12T11:28:57.985Z,54.74
2018-05-12T11:30:04.830Z,54.62
2018-05-12T11:31:11.581Z,54.50
2018-05-12T11:32:18.345Z,54.34
2018-05-12T11:33:25.160Z,54.54
2018-05-12T11:34:31.907Z,54.57
2018-05-12T11:35:38.623Z,54.61
2018-05-12T11:36:45.475Z,54.57
2018-05-12T11:37:52.206Z,54.76
2018-05-12T11:38:59.027Z,54.93
2018-05-12T11:40:05.895Z,54.66
2018-05-12T11:41:12.622Z,54.60
2018-05-12T11:42:19.404Z,54.51
2018-05-12T11:43:26.178Z,54.25
2018-05-12T11:44:33.056Z,54.29
2018-05-12T11:45:39.714Z,54.00
2018-05-12T11:46:46.504Z,53.60
2018-05-12T11:47:53.246Z,53.50
2018-05-12T11:49:00.050Z,53.65
2018-05-12T11:50:06.799Z,53.57
2018-05-12T11:51:13.603Z,53.60
2018-05-12T11:52:20.369Z,53.37
2018-05-12T11:53:27.151Z,53.76
2018-05-12T11:54:33.879Z,52.92
2018-05-12T11:55:40.603Z,52.95
2018-05-12T11:56:47.412Z,52.75
2018-05-12T11:57:54.227Z,52.20
2018-05-12T11:59:01.080Z,52.15
2018-05-12T12:00:07.850Z,51.92
2018-05-12T12:01:14.667Z,51.59
2018-05-12T12:02:21.513Z,51.55
2018-05-12T12:03:28.212Z,51.44
2018-05-12T12:04:34.935Z,51.48
2018-05-12T12:05:41.753Z,51.32
2018-05-12T12:06:48.527Z,51.40
2018-05-12T12:07:55.270Z,51.77
2018-05-12T12:09:03.766Z,51.54
2018-05-12T12:12:22.472Z,52.42
2018-05-12T12:13:29.299Z,52.62
2018-05-12T12:14:36.073Z,52.68
2018-05-12T12:15:42.891Z,52.93
2018-05-12T12:16:49.772Z,52.77
2018-05-12T12:17:56.515Z,52.95
2018-05-12T12:19:03.356Z,52.93
2018-05-12T12:20:10.226Z,52.82
2018-05-12T12:21:17.014Z,52.62
2018-05-12T12:22:23.869Z,52.44
2018-05-12T12:23:30.667Z,52.22
2018-05-12T12:24:37.422Z,52.22
2018-05-12T12:25:44.135Z,52.36
2018-05-12T12:26:50.891Z,51.91
2018-05-12T12:27:57.758Z,51.85
2018-05-12T12:29:04.543Z,51.26
2018-05-12T12:30:11.540Z,51.20
2018-05-12T12:31:18.315Z,50.92
2018-05-12T12:32:25.058Z,50.84
2018-05-12T12:33:31.859Z,50.46
2018-05-12T12:34:38.673Z,50.36
2018-05-12T12:35:45.551Z,50.31
2018-05-12T12:36:52.442Z,51.17
2018-05-12T12:37:59.183Z,50.99
2018-05-12T12:39:05.979Z,51.12
2018-05-12T12:40:12.941Z,50.85
2018-05-12T12:41:19.716Z,51.02
2018-05-12T12:42:26.670Z,51.02
2018-05-12T12:43:33.416Z,50.79
2018-05-12T12:44:40.136Z,50.61
2018-05-12T12:45:46.900Z,50.65
2018-05-12T12:46:53.719Z,50.84
2018-05-12T12:48:00.484Z,50.55
2018-05-12T12:49:07.272Z,50.64
2018-05-12T12:50:14.117Z,50.86
2018-05-12T12:51:20.879Z,50.66
2018-05-12T12:52:27.722Z,50.46
2018-05-12T12:53:34.525Z,50.80
2018-05-12T12:54:41.291Z,50.67
2018-05-12T12:55:48.052Z,50.31
2018-05-12T12:56:55.040Z,50.52
2018-05-12T12:58:01.842Z,50.33
2018-05-12T12:59:08.676Z,50.48
2018-05-12T13:00:15.447Z,50.48
2018-05-12T13:01:22.174Z,50.35
2018-05-12T13:02:28.912Z,50.39
2018-05-12T13:03:35.656Z,50.19
2018-05-12T13:04:42.528Z,50.04
2018-05-12T13:05:49.408Z,50.28
2018-05-12T13:06:56.295Z,50.04
2018-05-12T13:08:03.027Z,50.30
2018-05-12T13:09:09.791Z,50.02
2018-05-12T13:10:16.503Z,50.10
2018-05-12T13:11:23.222Z,49.31
2018-05-12T13:12:30.025Z,49.04
2018-05-12T13:13:36.749Z,49.02
2018-05-12T13:14:43.559Z,49.11
2018-05-12T13:15:50.279Z,49.25
2018-05-12T13:16:57.107Z,49.18
2018-05-12T13:18:03.805Z,49.42
2018-05-12T13:19:10.569Z,49.77
2018-05-12T13:20:17.327Z,49.84
2018-05-12T13:21:24.188Z,49.84
2018-05-12T13:22:31.264Z,49.66
2018-05-12T13:23:38.015Z,49.61
2018-05-12T13:24:44.773Z,49.67
2018-05-12T13:25:51.864Z,49.79
2018-05-12T13:26:58.216Z,49.84
2018-05-12T13:28:05.090Z,49.83
2018-05-12T13:29:12.015Z,49.84
2018-05-12T13:30:18.798Z,49.71
2018-05-12T13:31:25.547Z,49.73
2018-05-12T13:32:32.383Z,49.77
2018-05-12T13:33:39.128Z,49.79
2018-05-12T13:34:46.894Z,50.01
2018-05-12T13:35:52.711Z,49.82
2018-05-12T13:36:59.562Z,49.58
2018-05-12T13:38:06.291Z,49.55
2018-05-12T13:39:13.107Z,49.77
2018-05-12T13:40:20.048Z,50.14
2018-05-12T13:41:26.744Z,50.33
2018-05-12T13:42:33.566Z,50.17
2018-05-12T13:43:40.442Z,50.07
2018-05-12T13:44:47.320Z,49.84
2018-05-12T13:45:54.370Z,49.95
2018-05-12T13:47:01.163Z,50.30
2018-05-12T13:48:07.842Z,50.03
2018-05-12T13:49:14.630Z,49.93
2018-05-12T13:50:21.420Z,49.88
2018-05-12T13:51:28.213Z,50.48
2018-05-12T13:52:34.980Z,50.45
2018-05-12T13:53:41.767Z,50.44
2018-05-12T13:54:49.835Z,50.39
2018-05-12T13:55:55.871Z,50.52
2018-05-12T13:57:02.663Z,50.36
2018-05-12T13:58:09.610Z,50.16
2018-05-12T13:59:16.399Z,50.04
2018-05-12T14:00:23.301Z,50.64
2018-05-12T14:01:30.141Z,50.24
2018-05-12T14:02:36.936Z,50.35
2018-05-12T14:03:44.148Z,50.36
2018-05-12T14:04:51.035Z,50.17
2018-05-12T14:05:58.269Z,49.54
2018-05-12T14:07:05.083Z,49.30
2018-05-12T14:08:12.015Z,49.18
2018-05-12T14:09:19.170Z,49.41
2018-05-12T14:10:25.970Z,49.45
2018-05-12T14:11:32.899Z,49.31
2018-05-12T14:12:39.895Z,49.51
2018-05-12T14:13:46.683Z,49.78
2018-05-12T14:14:53.443Z,49.59
2018-05-12T14:16:00.717Z,49.50
2018-05-12T14:17:06.939Z,49.68
2018-05-12T14:18:13.825Z,49.38
2018-05-12T14:19:20.881Z,49.65
2018-05-12T14:20:27.639Z,49.55
2018-05-12T14:21:34.449Z,49.60
2018-05-12T14:22:41.242Z,49.38
2018-05-12T14:23:48.048Z,49.29
2018-05-12T14:24:54.775Z,49.43
2018-05-12T14:26:01.763Z,49.82